sensor_id;sensor_type;location;lat;lon;timestamp;temperature;humidity
13721;DHT22;6932;51.438;5.470;2022-09-01T00:01:25;23.80;56.80
13721;DHT22;6932;51.438;5.470;2022-09-01T00:03:57;23.80;56.90
13721;DHT22;6932;51.438;5.470;2022-09-01T00:06:29;23.80;57.00
13721;DHT22;6932;51.438;5.470;2022-09-01T00:09:00;23.70;57.00
13721;DHT22;6932;51.438;5.470;2022-09-01T00:11:29;23.70;57.10
13721;DHT22;6932;51.438;5.470;2022-09-01T00:13:57;23.60;57.30
13721;DHT22;6932;51.438;5.470;2022-09-01T00:16:26;23.60;58.00
13721;DHT22;6932;51.438;5.470;2022-09-01T00:18:53;23.50;57.40
13721;DHT22;6932;51.438;5.470;2022-09-01T00:21:23;23.50;57.60
13721;DHT22;6932;51.438;5.470;2022-09-01T00:23:51;23.40;57.70
13721;DHT22;6932;51.438;5.470;2022-09-01T00:26:17;23.40;57.80
13721;DHT22;6932;51.438;5.470;2022-09-01T00:28:44;23.40;58.00
13721;DHT22;6932;51.438;5.470;2022-09-01T00:31:11;23.30;58.00
13721;DHT22;6932;51.438;5.470;2022-09-01T00:33:39;23.30;58.20
13721;DHT22;6932;51.438;5.470;2022-09-01T00:36:06;23.30;58.40
13721;DHT22;6932;51.438;5.470;2022-09-01T00:38:32;23.30;58.50
13721;DHT22;6932;51.438;5.470;2022-09-01T00:40:59;23.20;58.60
13721;DHT22;6932;51.438;5.470;2022-09-01T00:43:41;23.20;58.70
13721;DHT22;6932;51.438;5.470;2022-09-01T00:46:14;23.10;58.80
13721;DHT22;6932;51.438;5.470;2022-09-01T00:49:07;23.20;59.00
13721;DHT22;6932;51.438;5.470;2022-09-01T00:51:43;23.10;59.10
13721;DHT22;6932;51.438;5.470;2022-09-01T00:54:21;23.10;59.20
13721;DHT22;6932;51.438;5.470;2022-09-01T00:56:51;23.00;59.30
13721;DHT22;6932;51.438;5.470;2022-09-01T00:59:21;23.00;59.40
13721;DHT22;6932;51.438;5.470;2022-09-01T01:01:48;23.00;59.60
13721;DHT22;6932;51.438;5.470;2022-09-01T01:04:15;23.00;59.70
13721;DHT22;6932;51.438;5.470;2022-09-01T01:06:44;22.90;59.90
13721;DHT22;6932;51.438;5.470;2022-09-01T01:09:16;22.90;60.00
13721;DHT22;6932;51.438;5.470;2022-09-01T01:11:44;22.90;60.10
13721;DHT22;6932;51.438;5.470;2022-09-01T01:14:12;22.90;60.10
13721;DHT22;6932;51.438;5.470;2022-09-01T01:16:47;22.80;60.20
13721;DHT22;6932;51.438;5.470;2022-09-01T01:19:24;22.80;60.30
13721;DHT22;6932;51.438;5.470;2022-09-01T01:22:35;22.80;60.50
13721;DHT22;6932;51.438;5.470;2022-09-01T01:25:50;22.80;60.60
13721;DHT22;6932;51.438;5.470;2022-09-01T01:28:23;22.70;60.70
13721;DHT22;6932;51.438;5.470;2022-09-01T01:31:07;22.70;60.80
13721;DHT22;6932;51.438;5.470;2022-09-01T01:33:41;22.70;60.90
13721;DHT22;6932;51.438;5.470;2022-09-01T01:38:48;22.60;61.10
13721;DHT22;6932;51.438;5.470;2022-09-01T01:41:15;22.60;61.20
13721;DHT22;6932;51.438;5.470;2022-09-01T01:43:44;22.60;61.20
13721;DHT22;6932;51.438;5.470;2022-09-01T01:46:11;22.60;61.30
13721;DHT22;6932;51.438;5.470;2022-09-01T01:48:40;22.50;61.30
13721;DHT22;6932;51.438;5.470;2022-09-01T01:51:08;22.50;61.40
13721;DHT22;6932;51.438;5.470;2022-09-01T01:53:37;22.50;61.50
13721;DHT22;6932;51.438;5.470;2022-09-01T01:56:03;22.50;61.60
13721;DHT22;6932;51.438;5.470;2022-09-01T01:58:30;22.50;61.70
13721;DHT22;6932;51.438;5.470;2022-09-01T02:00:57;22.40;61.70
13721;DHT22;6932;51.438;5.470;2022-09-01T02:03:26;22.40;61.70
13721;DHT22;6932;51.438;5.470;2022-09-01T02:05:55;22.40;61.80
13721;DHT22;6932;51.438;5.470;2022-09-01T02:08:22;22.40;61.80
13721;DHT22;6932;51.438;5.470;2022-09-01T02:10:53;22.40;61.80
13721;DHT22;6932;51.438;5.470;2022-09-01T02:13:22;22.40;62.00
13721;DHT22;6932;51.438;5.470;2022-09-01T02:16:04;22.30;62.00
13721;DHT22;6932;51.438;5.470;2022-09-01T02:18:42;22.30;62.10
13721;DHT22;6932;51.438;5.470;2022-09-01T02:21:14;22.30;62.10
13721;DHT22;6932;51.438;5.470;2022-09-01T02:23:45;22.30;62.20
13721;DHT22;6932;51.438;5.470;2022-09-01T02:26:16;22.30;62.20
13721;DHT22;6932;51.438;5.470;2022-09-01T02:28:45;22.30;62.20
13721;DHT22;6932;51.438;5.470;2022-09-01T02:31:14;22.20;62.20
13721;DHT22;6932;51.438;5.470;2022-09-01T02:33:41;22.20;62.20
13721;DHT22;6932;51.438;5.470;2022-09-01T02:36:13;22.20;62.30
13721;DHT22;6932;51.438;5.470;2022-09-01T02:38:41;22.20;62.40
13721;DHT22;6932;51.438;5.470;2022-09-01T02:41:11;22.20;63.10
13721;DHT22;6932;51.438;5.470;2022-09-01T02:43:39;22.20;62.50
13721;DHT22;6932;51.438;5.470;2022-09-01T02:46:05;22.10;62.60
13721;DHT22;6932;51.438;5.470;2022-09-01T02:48:33;22.10;62.60
13721;DHT22;6932;51.438;5.470;2022-09-01T02:51:22;22.10;62.60
13721;DHT22;6932;51.438;5.470;2022-09-01T02:53:52;22.10;62.80
13721;DHT22;6932;51.438;5.470;2022-09-01T02:56:21;22.10;62.80
13721;DHT22;6932;51.438;5.470;2022-09-01T02:58:49;22.10;63.50
13721;DHT22;6932;51.438;5.470;2022-09-01T03:01:19;22.00;63.00
13721;DHT22;6932;51.438;5.470;2022-09-01T03:03:52;22.10;63.10
13721;DHT22;6932;51.438;5.470;2022-09-01T03:06:20;22.00;63.10
13721;DHT22;6932;51.438;5.470;2022-09-01T03:08:52;22.00;63.10
13721;DHT22;6932;51.438;5.470;2022-09-01T03:11:24;22.00;63.20
13721;DHT22;6932;51.438;5.470;2022-09-01T03:13:50;22.00;63.40
13721;DHT22;6932;51.438;5.470;2022-09-01T03:16:17;22.00;63.50
13721;DHT22;6932;51.438;5.470;2022-09-01T03:18:43;21.90;63.50
13721;DHT22;6932;51.438;5.470;2022-09-01T03:21:10;21.90;63.50
13721;DHT22;6932;51.438;5.470;2022-09-01T03:23:40;21.90;63.70
13721;DHT22;6932;51.438;5.470;2022-09-01T03:26:07;21.90;63.70
13721;DHT22;6932;51.438;5.470;2022-09-01T03:28:33;21.90;63.80
13721;DHT22;6932;51.438;5.470;2022-09-01T03:30:58;21.90;63.80
13721;DHT22;6932;51.438;5.470;2022-09-01T03:33:26;21.90;63.90
13721;DHT22;6932;51.438;5.470;2022-09-01T03:35:53;21.80;63.90
13721;DHT22;6932;51.438;5.470;2022-09-01T03:38:20;21.80;64.00
13721;DHT22;6932;51.438;5.470;2022-09-01T03:41:00;21.80;64.00
13721;DHT22;6932;51.438;5.470;2022-09-01T03:43:32;21.80;64.00
13721;DHT22;6932;51.438;5.470;2022-09-01T03:45:59;21.80;64.20
13721;DHT22;6932;51.438;5.470;2022-09-01T03:48:27;21.80;64.30
13721;DHT22;6932;51.438;5.470;2022-09-01T03:50:55;21.70;64.30
13721;DHT22;6932;51.438;5.470;2022-09-01T03:53:28;21.80;64.50
13721;DHT22;6932;51.438;5.470;2022-09-01T03:55:55;21.70;64.50
13721;DHT22;6932;51.438;5.470;2022-09-01T03:58:22;21.70;64.50
13721;DHT22;6932;51.438;5.470;2022-09-01T04:00:52;21.70;64.70
13721;DHT22;6932;51.438;5.470;2022-09-01T04:03:21;21.60;64.60
13721;DHT22;6932;51.438;5.470;2022-09-01T04:05:50;21.70;64.70
13721;DHT22;6932;51.438;5.470;2022-09-01T04:08:19;21.60;64.70
13721;DHT22;6932;51.438;5.470;2022-09-01T04:10:51;21.60;64.80
13721;DHT22;6932;51.438;5.470;2022-09-01T04:13:21;21.60;64.80
13721;DHT22;6932;51.438;5.470;2022-09-01T04:15:50;21.60;64.90
13721;DHT22;6932;51.438;5.470;2022-09-01T04:18:17;21.60;65.00
13721;DHT22;6932;51.438;5.470;2022-09-01T04:20:50;21.60;65.00
13721;DHT22;6932;51.438;5.470;2022-09-01T04:23:31;21.60;65.10
13721;DHT22;6932;51.438;5.470;2022-09-01T04:26:01;21.50;65.10
13721;DHT22;6932;51.438;5.470;2022-09-01T04:28:39;21.50;65.20
13721;DHT22;6932;51.438;5.470;2022-09-01T04:31:11;21.50;65.20
13721;DHT22;6932;51.438;5.470;2022-09-01T04:33:42;21.50;65.30
13721;DHT22;6932;51.438;5.470;2022-09-01T04:36:23;21.50;66.10
13721;DHT22;6932;51.438;5.470;2022-09-01T04:38:53;21.50;65.40
13721;DHT22;6932;51.438;5.470;2022-09-01T04:41:21;21.40;65.30
13721;DHT22;6932;51.438;5.470;2022-09-01T04:43:50;21.40;65.30
13721;DHT22;6932;51.438;5.470;2022-09-01T04:46:20;21.40;65.40
13721;DHT22;6932;51.438;5.470;2022-09-01T04:48:47;21.40;65.30
13721;DHT22;6932;51.438;5.470;2022-09-01T04:51:16;21.40;65.40
13721;DHT22;6932;51.438;5.470;2022-09-01T04:53:45;21.40;65.40
13721;DHT22;6932;51.438;5.470;2022-09-01T04:56:14;21.40;65.50
13721;DHT22;6932;51.438;5.470;2022-09-01T04:58:50;21.40;65.50
13721;DHT22;6932;51.438;5.470;2022-09-01T05:01:25;21.40;65.50
13721;DHT22;6932;51.438;5.470;2022-09-01T05:03:52;21.40;65.50
13721;DHT22;6932;51.438;5.470;2022-09-01T05:06:28;21.40;65.60
13721;DHT22;6932;51.438;5.470;2022-09-01T05:08:54;21.40;65.60
13721;DHT22;6932;51.438;5.470;2022-09-01T05:11:22;21.40;65.60
13721;DHT22;6932;51.438;5.470;2022-09-01T05:13:49;21.40;65.70
13721;DHT22;6932;51.438;5.470;2022-09-01T05:16:20;21.40;65.70
13721;DHT22;6932;51.438;5.470;2022-09-01T05:18:48;21.40;65.60
13721;DHT22;6932;51.438;5.470;2022-09-01T05:21:17;21.40;65.60
13721;DHT22;6932;51.438;5.470;2022-09-01T05:23:46;21.40;66.40
13721;DHT22;6932;51.438;5.470;2022-09-01T05:26:23;21.40;65.60
13721;DHT22;6932;51.438;5.470;2022-09-01T05:28:53;21.40;65.60
13721;DHT22;6932;51.438;5.470;2022-09-01T05:31:22;21.40;65.60
13721;DHT22;6932;51.438;5.470;2022-09-01T05:33:49;21.40;65.60
13721;DHT22;6932;51.438;5.470;2022-09-01T05:36:18;21.40;65.60
13721;DHT22;6932;51.438;5.470;2022-09-01T05:38:46;21.40;65.70
13721;DHT22;6932;51.438;5.470;2022-09-01T05:41:14;21.40;65.50
13721;DHT22;6932;51.438;5.470;2022-09-01T05:43:46;21.50;65.50
13721;DHT22;6932;51.438;5.470;2022-09-01T05:46:24;21.50;65.40
13721;DHT22;6932;51.438;5.470;2022-09-01T05:48:54;21.50;65.40
13721;DHT22;6932;51.438;5.470;2022-09-01T05:51:25;21.60;65.40
13721;DHT22;6932;51.438;5.470;2022-09-01T05:53:54;21.60;65.30
13721;DHT22;6932;51.438;5.470;2022-09-01T05:56:25;21.60;65.20
13721;DHT22;6932;51.438;5.470;2022-09-01T05:58:52;21.70;65.20
13721;DHT22;6932;51.438;5.470;2022-09-01T06:01:24;21.70;65.20
13721;DHT22;6932;51.438;5.470;2022-09-01T06:03:53;21.70;65.00
13721;DHT22;6932;51.438;5.470;2022-09-01T06:06:29;21.80;64.80
13721;DHT22;6932;51.438;5.470;2022-09-01T06:09:07;21.70;65.80
13721;DHT22;6932;51.438;5.470;2022-09-01T06:11:33;21.50;65.40
13721;DHT22;6932;51.438;5.470;2022-09-01T06:14:00;21.50;65.70
13721;DHT22;6932;51.438;5.470;2022-09-01T06:16:28;21.40;66.10
13721;DHT22;6932;51.438;5.470;2022-09-01T06:18:54;21.40;66.20
13721;DHT22;6932;51.438;5.470;2022-09-01T06:21:22;21.50;66.30
13721;DHT22;6932;51.438;5.470;2022-09-01T06:23:50;21.50;66.10
13721;DHT22;6932;51.438;5.470;2022-09-01T06:26:24;21.70;65.90
13721;DHT22;6932;51.438;5.470;2022-09-01T06:28:58;21.80;65.60
13721;DHT22;6932;51.438;5.470;2022-09-01T06:31:34;22.00;65.40
13721;DHT22;6932;51.438;5.470;2022-09-01T06:34:06;22.10;65.10
13721;DHT22;6932;51.438;5.470;2022-09-01T06:36:37;22.20;64.80
13721;DHT22;6932;51.438;5.470;2022-09-01T06:39:07;22.40;64.90
13721;DHT22;6932;51.438;5.470;2022-09-01T06:41:33;22.50;64.40
13721;DHT22;6932;51.438;5.470;2022-09-01T06:44:01;22.60;64.20
13721;DHT22;6932;51.438;5.470;2022-09-01T06:46:27;22.70;64.20
13721;DHT22;6932;51.438;5.470;2022-09-01T06:48:54;22.80;64.10
13721;DHT22;6932;51.438;5.470;2022-09-01T06:51:24;22.90;64.00
13721;DHT22;6932;51.438;5.470;2022-09-01T06:53:56;23.00;63.70
13721;DHT22;6932;51.438;5.470;2022-09-01T06:56:25;23.10;63.50
13721;DHT22;6932;51.438;5.470;2022-09-01T06:58:54;23.30;63.50
13721;DHT22;6932;51.438;5.470;2022-09-01T07:01:21;23.30;63.20
13721;DHT22;6932;51.438;5.470;2022-09-01T07:03:50;23.50;63.10
13721;DHT22;6932;51.438;5.470;2022-09-01T07:06:18;23.60;63.10
13721;DHT22;6932;51.438;5.470;2022-09-01T07:08:52;23.70;62.90
13721;DHT22;6932;51.438;5.470;2022-09-01T07:11:23;23.90;63.50
13721;DHT22;6932;51.438;5.470;2022-09-01T07:13:55;24.00;62.50
13721;DHT22;6932;51.438;5.470;2022-09-01T07:16:24;24.20;62.10
13721;DHT22;6932;51.438;5.470;2022-09-01T07:18:55;24.30;61.90
13721;DHT22;6932;51.438;5.470;2022-09-01T07:21:25;24.50;61.80
13721;DHT22;6932;51.438;5.470;2022-09-01T07:23:52;24.60;61.50
13721;DHT22;6932;51.438;5.470;2022-09-01T07:26:18;24.70;61.40
13721;DHT22;6932;51.438;5.470;2022-09-01T07:28:46;24.80;61.40
13721;DHT22;6932;51.438;5.470;2022-09-01T07:31:19;24.90;61.20
13721;DHT22;6932;51.438;5.470;2022-09-01T07:33:58;24.90;60.90
13721;DHT22;6932;51.438;5.470;2022-09-01T07:36:26;25.10;60.80
13721;DHT22;6932;51.438;5.470;2022-09-01T07:38:52;25.10;60.70
13721;DHT22;6932;51.438;5.470;2022-09-01T07:41:22;25.20;60.70
13721;DHT22;6932;51.438;5.470;2022-09-01T07:43:51;25.30;60.40
13721;DHT22;6932;51.438;5.470;2022-09-01T07:46:22;25.40;60.20
13721;DHT22;6932;51.438;5.470;2022-09-01T07:48:52;25.50;60.10
13721;DHT22;6932;51.438;5.470;2022-09-01T07:51:21;25.50;60.00
13721;DHT22;6932;51.438;5.470;2022-09-01T07:53:48;25.60;59.90
13721;DHT22;6932;51.438;5.470;2022-09-01T07:56:16;25.70;59.70
13721;DHT22;6932;51.438;5.470;2022-09-01T07:58:45;25.70;59.60
13721;DHT22;6932;51.438;5.470;2022-09-01T08:01:15;25.80;59.80
13721;DHT22;6932;51.438;5.470;2022-09-01T08:03:48;25.80;60.00
13721;DHT22;6932;51.438;5.470;2022-09-01T08:06:18;25.80;59.70
13721;DHT22;6932;51.438;5.470;2022-09-01T08:08:47;25.90;59.80
13721;DHT22;6932;51.438;5.470;2022-09-01T08:11:25;26.00;60.00
13721;DHT22;6932;51.438;5.470;2022-09-01T08:13:55;26.00;60.00
13721;DHT22;6932;51.438;5.470;2022-09-01T08:16:29;26.10;60.00
13721;DHT22;6932;51.438;5.470;2022-09-01T08:18:56;26.20;60.00
13721;DHT22;6932;51.438;5.470;2022-09-01T08:21:23;26.40;59.90
13721;DHT22;6932;51.438;5.470;2022-09-01T08:23:51;26.50;59.70
13721;DHT22;6932;51.438;5.470;2022-09-01T08:26:21;26.50;59.50
13721;DHT22;6932;51.438;5.470;2022-09-01T08:28:50;26.60;59.40
13721;DHT22;6932;51.438;5.470;2022-09-01T08:31:18;26.70;59.70
13721;DHT22;6932;51.438;5.470;2022-09-01T08:33:47;26.80;59.80
13721;DHT22;6932;51.438;5.470;2022-09-01T08:36:15;26.90;59.70
13721;DHT22;6932;51.438;5.470;2022-09-01T08:38:41;27.00;59.60
13721;DHT22;6932;51.438;5.470;2022-09-01T08:47:03;27.50;58.60
13721;DHT22;6932;51.438;5.470;2022-09-01T08:49:33;27.60;58.30
13721;DHT22;6932;51.438;5.470;2022-09-01T08:52:27;27.70;58.10
13721;DHT22;6932;51.438;5.470;2022-09-01T08:55:34;27.80;58.20
13721;DHT22;6932;51.438;5.470;2022-09-01T08:58:05;27.80;58.20
13721;DHT22;6932;51.438;5.470;2022-09-01T09:00:58;27.90;57.90
13721;DHT22;6932;51.438;5.470;2022-09-01T09:06:21;27.90;57.90
13721;DHT22;6932;51.438;5.470;2022-09-01T09:09:05;28.00;57.90
13721;DHT22;6932;51.438;5.470;2022-09-01T09:11:40;28.10;57.50
13721;DHT22;6932;51.438;5.470;2022-09-01T09:16:55;28.30;56.50
13721;DHT22;6932;51.438;5.470;2022-09-01T09:19:33;28.40;56.40
13721;DHT22;6932;51.438;5.470;2022-09-01T09:22:12;28.50;56.40
13721;DHT22;6932;51.438;5.470;2022-09-01T09:24:51;28.50;55.80
13721;DHT22;6932;51.438;5.470;2022-09-01T09:27:30;28.50;55.70
13721;DHT22;6932;51.438;5.470;2022-09-01T09:30:25;28.50;55.70
13721;DHT22;6932;51.438;5.470;2022-09-01T09:32:57;28.50;55.40
13721;DHT22;6932;51.438;5.470;2022-09-01T09:35:43;28.60;54.90
13721;DHT22;6932;51.438;5.470;2022-09-01T09:41:12;28.70;55.10
13721;DHT22;6932;51.438;5.470;2022-09-01T09:44:14;28.70;54.30
13721;DHT22;6932;51.438;5.470;2022-09-01T09:46:50;28.80;54.50
13721;DHT22;6932;51.438;5.470;2022-09-01T09:49:22;28.80;53.90
13721;DHT22;6932;51.438;5.470;2022-09-01T09:54:33;28.90;53.20
13721;DHT22;6932;51.438;5.470;2022-09-01T10:02:39;29.10;51.50
13721;DHT22;6932;51.438;5.470;2022-09-01T10:07:57;29.10;51.60
13721;DHT22;6932;51.438;5.470;2022-09-01T10:13:18;29.20;50.30
13721;DHT22;6932;51.438;5.470;2022-09-01T10:15:54;29.30;50.90
13721;DHT22;6932;51.438;5.470;2022-09-01T10:18:29;29.30;49.80
13721;DHT22;6932;51.438;5.470;2022-09-01T10:23:47;29.30;50.10
13721;DHT22;6932;51.438;5.470;2022-09-01T10:26:17;29.30;50.20
13721;DHT22;6932;51.438;5.470;2022-09-01T10:31:43;29.30;50.10
13721;DHT22;6932;51.438;5.470;2022-09-01T10:34:14;29.30;49.30
13721;DHT22;6932;51.438;5.470;2022-09-01T10:36:43;29.30;49.00
13721;DHT22;6932;51.438;5.470;2022-09-01T10:39:12;29.30;48.20
13721;DHT22;6932;51.438;5.470;2022-09-01T10:44:30;29.30;48.10
13721;DHT22;6932;51.438;5.470;2022-09-01T10:47:11;29.40;48.10
13721;DHT22;6932;51.438;5.470;2022-09-01T10:55:29;29.40;47.90
13721;DHT22;6932;51.438;5.470;2022-09-01T10:59:07;29.40;48.10
13721;DHT22;6932;51.438;5.470;2022-09-01T11:09:37;29.30;46.90
13721;DHT22;6932;51.438;5.470;2022-09-01T11:14:56;29.40;47.10
13721;DHT22;6932;51.438;5.470;2022-09-01T11:17:36;29.30;47.20
13721;DHT22;6932;51.438;5.470;2022-09-01T11:20:26;29.40;47.10
13721;DHT22;6932;51.438;5.470;2022-09-01T11:23:09;29.40;46.90
13721;DHT22;6932;51.438;5.470;2022-09-01T11:25:44;29.40;47.10
13721;DHT22;6932;51.438;5.470;2022-09-01T11:41:51;29.40;46.80
13721;DHT22;6932;51.438;5.470;2022-09-01T11:44:25;29.50;47.00
13721;DHT22;6932;51.438;5.470;2022-09-01T11:47:01;29.40;46.80
13721;DHT22;6932;51.438;5.470;2022-09-01T11:49:32;29.40;46.30
13721;DHT22;6932;51.438;5.470;2022-09-01T11:52:02;29.40;46.30
13721;DHT22;6932;51.438;5.470;2022-09-01T11:54:37;29.40;46.20
13721;DHT22;6932;51.438;5.470;2022-09-01T11:57:26;29.40;46.10
13721;DHT22;6932;51.438;5.470;2022-09-01T11:59:54;29.40;45.80
13721;DHT22;6932;51.438;5.470;2022-09-01T12:02:27;29.50;45.70
13721;DHT22;6932;51.438;5.470;2022-09-01T12:04:58;29.40;45.50
13721;DHT22;6932;51.438;5.470;2022-09-01T12:07:36;29.40;44.90
13721;DHT22;6932;51.438;5.470;2022-09-01T12:13:00;29.40;45.30
13721;DHT22;6932;51.438;5.470;2022-09-01T12:15:39;29.40;45.00
13721;DHT22;6932;51.438;5.470;2022-09-01T12:18:23;29.50;45.00
13721;DHT22;6932;51.438;5.470;2022-09-01T12:20:54;29.40;44.90
13721;DHT22;6932;51.438;5.470;2022-09-01T12:23:25;29.40;44.70
13721;DHT22;6932;51.438;5.470;2022-09-01T12:26:09;29.40;44.50
13721;DHT22;6932;51.438;5.470;2022-09-01T12:28:39;29.40;44.40
13721;DHT22;6932;51.438;5.470;2022-09-01T12:31:17;29.40;44.30
13721;DHT22;6932;51.438;5.470;2022-09-01T12:33:46;29.40;44.30
13721;DHT22;6932;51.438;5.470;2022-09-01T12:36:26;29.40;43.50
13721;DHT22;6932;51.438;5.470;2022-09-01T12:41:59;29.40;43.50
13721;DHT22;6932;51.438;5.470;2022-09-01T12:47:08;29.40;43.20
13721;DHT22;6932;51.438;5.470;2022-09-01T12:49:42;29.40;42.90
13721;DHT22;6932;51.438;5.470;2022-09-01T12:57:49;29.40;42.00
13721;DHT22;6932;51.438;5.470;2022-09-01T13:02:48;29.30;42.20
13721;DHT22;6932;51.438;5.470;2022-09-01T13:05:38;29.30;42.20
13721;DHT22;6932;51.438;5.470;2022-09-01T13:08:11;29.30;42.30
13721;DHT22;6932;51.438;5.470;2022-09-01T13:13:15;29.30;41.60
13721;DHT22;6932;51.438;5.470;2022-09-01T13:15:44;29.30;41.60
13721;DHT22;6932;51.438;5.470;2022-09-01T13:18:13;29.30;41.70
13721;DHT22;6932;51.438;5.470;2022-09-01T13:20:39;29.30;41.90
13721;DHT22;6932;51.438;5.470;2022-09-01T13:23:07;29.30;41.90
13721;DHT22;6932;51.438;5.470;2022-09-01T13:25:33;29.30;41.50
13721;DHT22;6932;51.438;5.470;2022-09-01T13:28:00;29.20;42.00
13721;DHT22;6932;51.438;5.470;2022-09-01T13:30:27;29.10;41.50
13721;DHT22;6932;51.438;5.470;2022-09-01T13:32:55;29.00;41.50
13721;DHT22;6932;51.438;5.470;2022-09-01T13:35:22;28.90;41.50
13721;DHT22;6932;51.438;5.470;2022-09-01T13:37:49;28.90;41.50
13721;DHT22;6932;51.438;5.470;2022-09-01T13:40:17;28.80;41.50
13721;DHT22;6932;51.438;5.470;2022-09-01T13:42:48;28.80;41.80
13721;DHT22;6932;51.438;5.470;2022-09-01T13:45:18;28.70;42.40
13721;DHT22;6932;51.438;5.470;2022-09-01T13:47:47;28.60;42.60
13721;DHT22;6932;51.438;5.470;2022-09-01T13:50:16;28.60;42.40
13721;DHT22;6932;51.438;5.470;2022-09-01T13:52:46;28.70;41.90
13721;DHT22;6932;51.438;5.470;2022-09-01T13:55:20;28.70;42.00
13721;DHT22;6932;51.438;5.470;2022-09-01T13:57:52;28.70;41.90
13721;DHT22;6932;51.438;5.470;2022-09-01T14:00:20;28.80;41.70
13721;DHT22;6932;51.438;5.470;2022-09-01T14:02:51;28.80;41.70
13721;DHT22;6932;51.438;5.470;2022-09-01T14:05:24;28.80;41.70
13721;DHT22;6932;51.438;5.470;2022-09-01T14:07:53;28.80;41.90
13721;DHT22;6932;51.438;5.470;2022-09-01T14:10:20;28.80;41.90
13721;DHT22;6932;51.438;5.470;2022-09-01T14:12:47;28.80;42.10
13721;DHT22;6932;51.438;5.470;2022-09-01T14:15:16;28.80;42.20
13721;DHT22;6932;51.438;5.470;2022-09-01T14:17:46;28.80;42.60
13721;DHT22;6932;51.438;5.470;2022-09-01T14:20:17;28.80;42.30
13721;DHT22;6932;51.438;5.470;2022-09-01T14:22:46;28.70;41.70
13721;DHT22;6932;51.438;5.470;2022-09-01T14:25:14;28.80;42.50
13721;DHT22;6932;51.438;5.470;2022-09-01T14:27:43;28.80;42.10
13721;DHT22;6932;51.438;5.470;2022-09-01T14:30:21;28.80;41.80
13721;DHT22;6932;51.438;5.470;2022-09-01T14:32:49;28.90;41.90
13721;DHT22;6932;51.438;5.470;2022-09-01T14:35:17;28.90;42.10
13721;DHT22;6932;51.438;5.470;2022-09-01T14:37:46;28.90;42.00
13721;DHT22;6932;51.438;5.470;2022-09-01T14:40:14;28.90;42.30
13721;DHT22;6932;51.438;5.470;2022-09-01T14:42:42;28.90;41.80
13721;DHT22;6932;51.438;5.470;2022-09-01T14:45:11;28.90;41.80
13721;DHT22;6932;51.438;5.470;2022-09-01T14:47:39;28.90;42.20
13721;DHT22;6932;51.438;5.470;2022-09-01T14:50:05;28.90;42.00
13721;DHT22;6932;51.438;5.470;2022-09-01T14:52:32;28.90;41.90
13721;DHT22;6932;51.438;5.470;2022-09-01T14:54:58;28.90;41.80
13721;DHT22;6932;51.438;5.470;2022-09-01T14:57:24;28.90;41.70
13721;DHT22;6932;51.438;5.470;2022-09-01T14:59:50;28.90;42.00
13721;DHT22;6932;51.438;5.470;2022-09-01T15:02:15;28.80;42.10
13721;DHT22;6932;51.438;5.470;2022-09-01T15:04:41;28.80;42.30
13721;DHT22;6932;51.438;5.470;2022-09-01T15:07:07;28.80;42.70
13721;DHT22;6932;51.438;5.470;2022-09-01T15:09:34;28.80;42.90
13721;DHT22;6932;51.438;5.470;2022-09-01T15:11:59;28.70;42.50
13721;DHT22;6932;51.438;5.470;2022-09-01T15:14:26;28.70;42.50
13721;DHT22;6932;51.438;5.470;2022-09-01T15:16:52;28.70;42.50
13721;DHT22;6932;51.438;5.470;2022-09-01T15:19:17;28.70;42.40
13721;DHT22;6932;51.438;5.470;2022-09-01T15:21:45;28.70;42.50
13721;DHT22;6932;51.438;5.470;2022-09-01T15:24:12;28.70;42.70
13721;DHT22;6932;51.438;5.470;2022-09-01T15:26:38;28.60;42.80
13721;DHT22;6932;51.438;5.470;2022-09-01T15:29:08;28.60;43.00
13721;DHT22;6932;51.438;5.470;2022-09-01T15:31:36;28.70;43.20
13721;DHT22;6932;51.438;5.470;2022-09-01T15:34:03;28.70;43.30
13721;DHT22;6932;51.438;5.470;2022-09-01T15:36:30;28.60;43.20
13721;DHT22;6932;51.438;5.470;2022-09-01T15:38:59;28.70;43.30
13721;DHT22;6932;51.438;5.470;2022-09-01T15:41:27;28.70;43.40
13721;DHT22;6932;51.438;5.470;2022-09-01T15:43:56;28.70;43.30
13721;DHT22;6932;51.438;5.470;2022-09-01T15:46:23;28.60;43.50
13721;DHT22;6932;51.438;5.470;2022-09-01T15:49:01;28.70;43.80
13721;DHT22;6932;51.438;5.470;2022-09-01T15:51:37;28.60;43.90
13721;DHT22;6932;51.438;5.470;2022-09-01T15:54:17;28.70;44.00
13721;DHT22;6932;51.438;5.470;2022-09-01T15:56:45;28.70;44.00
13721;DHT22;6932;51.438;5.470;2022-09-01T15:59:14;28.90;44.00
13721;DHT22;6932;51.438;5.470;2022-09-01T16:01:42;28.90;43.70
13721;DHT22;6932;51.438;5.470;2022-09-01T16:04:11;29.00;43.70
13721;DHT22;6932;51.438;5.470;2022-09-01T16:06:39;29.00;43.50
13721;DHT22;6932;51.438;5.470;2022-09-01T16:09:07;29.10;43.60
13721;DHT22;6932;51.438;5.470;2022-09-01T16:11:33;29.20;43.80
13721;DHT22;6932;51.438;5.470;2022-09-01T16:14:01;29.20;43.90
13721;DHT22;6932;51.438;5.470;2022-09-01T16:22:37;29.20;44.10
13721;DHT22;6932;51.438;5.470;2022-09-01T16:25:17;29.30;44.20
13721;DHT22;6932;51.438;5.470;2022-09-01T16:27:50;29.30;44.30
13721;DHT22;6932;51.438;5.470;2022-09-01T16:30:22;29.30;44.20
13721;DHT22;6932;51.438;5.470;2022-09-01T16:32:54;29.30;44.20
13721;DHT22;6932;51.438;5.470;2022-09-01T16:35:33;29.30;44.20
13721;DHT22;6932;51.438;5.470;2022-09-01T16:38:22;29.30;44.10
13721;DHT22;6932;51.438;5.470;2022-09-01T16:47:20;29.40;44.50
13721;DHT22;6932;51.438;5.470;2022-09-01T16:49:59;29.30;45.20
13721;DHT22;6932;51.438;5.470;2022-09-01T16:58:42;29.30;44.90
13721;DHT22;6932;51.438;5.470;2022-09-01T17:01:15;29.30;45.00
13721;DHT22;6932;51.438;5.470;2022-09-01T17:04:00;29.30;45.00
13721;DHT22;6932;51.438;5.470;2022-09-01T17:07:26;29.30;45.10
13721;DHT22;6932;51.438;5.470;2022-09-01T17:10:42;29.30;45.20
13721;DHT22;6932;51.438;5.470;2022-09-01T17:13:37;29.20;45.30
13721;DHT22;6932;51.438;5.470;2022-09-01T17:16:17;29.20;45.50
13721;DHT22;6932;51.438;5.470;2022-09-01T17:18:59;29.30;45.70
13721;DHT22;6932;51.438;5.470;2022-09-01T17:21:45;29.20;45.70
13721;DHT22;6932;51.438;5.470;2022-09-01T17:24:49;29.20;45.70
13721;DHT22;6932;51.438;5.470;2022-09-01T17:29:56;29.20;46.00
13721;DHT22;6932;51.438;5.470;2022-09-01T17:38:17;29.10;46.30
13721;DHT22;6932;51.438;5.470;2022-09-01T17:41:10;29.20;46.50
13721;DHT22;6932;51.438;5.470;2022-09-01T17:44:10;29.10;46.70
13721;DHT22;6932;51.438;5.470;2022-09-01T17:47:18;29.10;46.80
13721;DHT22;6932;51.438;5.470;2022-09-01T17:53:07;29.00;47.20
13721;DHT22;6932;51.438;5.470;2022-09-01T17:59:14;28.90;47.60
13721;DHT22;6932;51.438;5.470;2022-09-01T18:05:19;28.80;48.60
13721;DHT22;6932;51.438;5.470;2022-09-01T18:08:14;28.80;48.10
13721;DHT22;6932;51.438;5.470;2022-09-01T18:11:13;28.60;48.20
13721;DHT22;6932;51.438;5.470;2022-09-01T18:13:58;28.60;48.30
13721;DHT22;6932;51.438;5.470;2022-09-01T18:16:35;28.50;48.40
13721;DHT22;6932;51.438;5.470;2022-09-01T18:19:18;28.50;48.60
13721;DHT22;6932;51.438;5.470;2022-09-01T18:21:53;28.40;48.70
13721;DHT22;6932;51.438;5.470;2022-09-01T18:24:33;28.40;48.80